sensor_id;sensor_type;location;lat;lon;timestamp;P1;durP1;ratioP1;P2;durP2;ratioP2
20427;SDS011;10373;49.768;18.302;2023-06-04T00:01:09;4.90;;;3.20;;
20427;SDS011;10373;49.768;18.302;2023-06-04T00:03:35;4.27;;;2.80;;
20427;SDS011;10373;49.768;18.302;2023-06-04T00:06:00;4.33;;;2.70;;
20427;SDS011;10373;49.768;18.302;2023-06-04T00:08:26;3.30;;;2.60;;
20427;SDS011;10373;49.768;18.302;2023-06-04T00:10:52;3.83;;;2.87;;
20427;SDS011;10373;49.768;18.302;2023-06-04T00:13:17;4.07;;;2.90;;
20427;SDS011;10373;49.768;18.302;2023-06-04T00:15:43;3.50;;;3.00;;
20427;SDS011;10373;49.768;18.302;2023-06-04T00:18:09;6.63;;;3.00;;
20427;SDS011;10373;49.768;18.302;2023-06-04T00:20:36;7.37;;;3.23;;
20427;SDS011;10373;49.768;18.302;2023-06-04T00:23:02;4.67;;;3.00;;
20427;SDS011;10373;49.768;18.302;2023-06-04T00:25:28;4.63;;;3.20;;
20427;SDS011;10373;49.768;18.302;2023-06-04T00:27:53;3.93;;;2.80;;
20427;SDS011;10373;49.768;18.302;2023-06-04T00:30:19;4.30;;;2.90;;
20427;SDS011;10373;49.768;18.302;2023-06-04T00:32:45;5.20;;;3.30;;
20427;SDS011;10373;49.768;18.302;2023-06-04T00:35:12;4.70;;;3.40;;
20427;SDS011;10373;49.768;18.302;2023-06-04T00:37:37;3.47;;;2.83;;
20427;SDS011;10373;49.768;18.302;2023-06-04T00:40:03;4.40;;;2.97;;
20427;SDS011;10373;49.768;18.302;2023-06-04T00:42:30;6.00;;;2.87;;
20427;SDS011;10373;49.768;18.302;2023-06-04T00:44:56;6.77;;;3.53;;
20427;SDS011;10373;49.768;18.302;2023-06-04T00:47:22;5.67;;;2.80;;
20427;SDS011;10373;49.768;18.302;2023-06-04T00:49:48;5.67;;;3.00;;
20427;SDS011;10373;49.768;18.302;2023-06-04T00:52:14;4.10;;;2.90;;
20427;SDS011;10373;49.768;18.302;2023-06-04T00:54:41;3.17;;;2.63;;
20427;SDS011;10373;49.768;18.302;2023-06-04T00:57:07;3.33;;;2.83;;
20427;SDS011;10373;49.768;18.302;2023-06-04T00:59:34;3.50;;;2.93;;
20427;SDS011;10373;49.768;18.302;2023-06-04T01:02:03;4.47;;;2.90;;
20427;SDS011;10373;49.768;18.302;2023-06-04T01:04:46;4.70;;;3.20;;
20427;SDS011;10373;49.768;18.302;2023-06-04T01:07:20;4.30;;;3.03;;
20427;SDS011;10373;49.768;18.302;2023-06-04T01:09:48;4.23;;;3.30;;
20427;SDS011;10373;49.768;18.302;2023-06-04T01:12:15;5.43;;;3.23;;
20427;SDS011;10373;49.768;18.302;2023-06-04T01:14:41;5.03;;;3.37;;
20427;SDS011;10373;49.768;18.302;2023-06-04T01:17:11;6.30;;;3.50;;
20427;SDS011;10373;49.768;18.302;2023-06-04T01:28:01;3.30;;;2.77;;
20427;SDS011;10373;49.768;18.302;2023-06-04T01:30:29;4.27;;;3.20;;
20427;SDS011;10373;49.768;18.302;2023-06-04T01:33:08;5.70;;;3.37;;
20427;SDS011;10373;49.768;18.302;2023-06-04T01:35:38;4.90;;;3.40;;
20427;SDS011;10373;49.768;18.302;2023-06-04T01:38:05;5.93;;;2.90;;
20427;SDS011;10373;49.768;18.302;2023-06-04T01:40:31;4.03;;;3.23;;
20427;SDS011;10373;49.768;18.302;2023-06-04T01:42:57;4.90;;;3.30;;
20427;SDS011;10373;49.768;18.302;2023-06-04T01:45:24;5.30;;;3.00;;
20427;SDS011;10373;49.768;18.302;2023-06-04T01:47:51;4.57;;;3.17;;
20427;SDS011;10373;49.768;18.302;2023-06-04T01:50:18;3.97;;;2.87;;
20427;SDS011;10373;49.768;18.302;2023-06-04T01:52:44;4.53;;;2.90;;
20427;SDS011;10373;49.768;18.302;2023-06-04T01:55:11;4.17;;;3.00;;
20427;SDS011;10373;49.768;18.302;2023-06-04T01:57:38;6.70;;;3.10;;
20427;SDS011;10373;49.768;18.302;2023-06-04T02:00:07;4.37;;;3.30;;
20427;SDS011;10373;49.768;18.302;2023-06-04T02:02:39;5.30;;;2.93;;
20427;SDS011;10373;49.768;18.302;2023-06-04T02:05:07;3.90;;;2.70;;
20427;SDS011;10373;49.768;18.302;2023-06-04T02:07:36;4.63;;;3.27;;
20427;SDS011;10373;49.768;18.302;2023-06-04T02:10:06;5.40;;;3.07;;
20427;SDS011;10373;49.768;18.302;2023-06-04T02:12:36;4.63;;;2.90;;
20427;SDS011;10373;49.768;18.302;2023-06-04T02:15:03;4.30;;;3.03;;
20427;SDS011;10373;49.768;18.302;2023-06-04T02:17:29;5.97;;;3.33;;
20427;SDS011;10373;49.768;18.302;2023-06-04T02:19:57;4.13;;;3.17;;
20427;SDS011;10373;49.768;18.302;2023-06-04T02:22:23;5.50;;;3.07;;
20427;SDS011;10373;49.768;18.302;2023-06-04T02:24:50;3.13;;;2.80;;
20427;SDS011;10373;49.768;18.302;2023-06-04T02:27:15;3.83;;;3.10;;
20427;SDS011;10373;49.768;18.302;2023-06-04T02:29:41;4.57;;;2.87;;
20427;SDS011;10373;49.768;18.302;2023-06-04T02:32:08;3.37;;;2.80;;
20427;SDS011;10373;49.768;18.302;2023-06-04T02:34:34;4.67;;;2.73;;
20427;SDS011;10373;49.768;18.302;2023-06-04T02:37:00;5.27;;;2.97;;
20427;SDS011;10373;49.768;18.302;2023-06-04T02:39:26;3.57;;;3.00;;
20427;SDS011;10373;49.768;18.302;2023-06-04T02:41:51;4.10;;;3.37;;
20427;SDS011;10373;49.768;18.302;2023-06-04T02:44:17;3.67;;;3.20;;
20427;SDS011;10373;49.768;18.302;2023-06-04T02:46:43;4.27;;;3.20;;
20427;SDS011;10373;49.768;18.302;2023-06-04T02:49:09;6.50;;;3.10;;
20427;SDS011;10373;49.768;18.302;2023-06-04T02:51:38;3.67;;;3.20;;
20427;SDS011;10373;49.768;18.302;2023-06-04T02:54:07;5.80;;;3.50;;
20427;SDS011;10373;49.768;18.302;2023-06-04T02:56:34;3.60;;;3.10;;
20427;SDS011;10373;49.768;18.302;2023-06-04T02:59:01;3.77;;;3.00;;
20427;SDS011;10373;49.768;18.302;2023-06-04T03:01:27;4.67;;;3.40;;
20427;SDS011;10373;49.768;18.302;2023-06-04T03:03:53;5.43;;;3.23;;
20427;SDS011;10373;49.768;18.302;2023-06-04T03:06:20;5.17;;;3.00;;
20427;SDS011;10373;49.768;18.302;2023-06-04T03:08:47;4.33;;;3.23;;
20427;SDS011;10373;49.768;18.302;2023-06-04T03:11:14;8.20;;;3.53;;
20427;SDS011;10373;49.768;18.302;2023-06-04T03:13:39;4.30;;;3.17;;
20427;SDS011;10373;49.768;18.302;2023-06-04T03:16:05;3.87;;;3.00;;
20427;SDS011;10373;49.768;18.302;2023-06-04T03:18:37;4.10;;;2.90;;
20427;SDS011;10373;49.768;18.302;2023-06-04T03:21:04;5.33;;;3.77;;
20427;SDS011;10373;49.768;18.302;2023-06-04T03:23:30;4.80;;;3.37;;
20427;SDS011;10373;49.768;18.302;2023-06-04T03:25:55;5.47;;;3.63;;
20427;SDS011;10373;49.768;18.302;2023-06-04T03:28:21;6.30;;;3.43;;
20427;SDS011;10373;49.768;18.302;2023-06-04T03:30:47;4.93;;;3.00;;
20427;SDS011;10373;49.768;18.302;2023-06-04T03:33:12;5.03;;;3.40;;
20427;SDS011;10373;49.768;18.302;2023-06-04T03:35:40;3.53;;;3.20;;
20427;SDS011;10373;49.768;18.302;2023-06-04T03:38:06;4.53;;;3.13;;
20427;SDS011;10373;49.768;18.302;2023-06-04T03:40:32;4.00;;;2.83;;
20427;SDS011;10373;49.768;18.302;2023-06-04T03:42:57;5.57;;;3.70;;
20427;SDS011;10373;49.768;18.302;2023-06-04T03:45:23;5.27;;;3.27;;
20427;SDS011;10373;49.768;18.302;2023-06-04T03:47:49;4.03;;;3.00;;
20427;SDS011;10373;49.768;18.302;2023-06-04T03:50:14;4.50;;;3.70;;
20427;SDS011;10373;49.768;18.302;2023-06-04T03:52:40;5.77;;;3.80;;
20427;SDS011;10373;49.768;18.302;2023-06-04T03:55:06;4.93;;;3.27;;
20427;SDS011;10373;49.768;18.302;2023-06-04T03:57:32;4.00;;;3.50;;
20427;SDS011;10373;49.768;18.302;2023-06-04T03:59:57;3.43;;;3.03;;
20427;SDS011;10373;49.768;18.302;2023-06-04T04:02:23;4.43;;;3.40;;
20427;SDS011;10373;49.768;18.302;2023-06-04T04:04:49;3.90;;;3.40;;
20427;SDS011;10373;49.768;18.302;2023-06-04T04:07:15;5.60;;;3.67;;
20427;SDS011;10373;49.768;18.302;2023-06-04T04:09:41;6.40;;;3.53;;
20427;SDS011;10373;49.768;18.302;2023-06-04T04:12:06;4.40;;;3.67;;
20427;SDS011;10373;49.768;18.302;2023-06-04T04:14:32;4.67;;;3.73;;
20427;SDS011;10373;49.768;18.302;2023-06-04T04:16:58;4.33;;;3.43;;
20427;SDS011;10373;49.768;18.302;2023-06-04T04:19:24;4.10;;;3.40;;
20427;SDS011;10373;49.768;18.302;2023-06-04T04:21:50;4.57;;;3.50;;
20427;SDS011;10373;49.768;18.302;2023-06-04T04:24:23;4.43;;;3.47;;
20427;SDS011;10373;49.768;18.302;2023-06-04T04:26:49;4.43;;;3.47;;
20427;SDS011;10373;49.768;18.302;2023-06-04T04:29:19;5.30;;;3.40;;
20427;SDS011;10373;49.768;18.302;2023-06-04T04:31:49;4.27;;;3.50;;
20427;SDS011;10373;49.768;18.302;2023-06-04T04:34:15;6.67;;;4.10;;
20427;SDS011;10373;49.768;18.302;2023-06-04T04:36:42;4.67;;;3.73;;
20427;SDS011;10373;49.768;18.302;2023-06-04T04:39:09;4.60;;;3.40;;
20427;SDS011;10373;49.768;18.302;2023-06-04T04:41:36;3.47;;;3.07;;
20427;SDS011;10373;49.768;18.302;2023-06-04T04:44:02;5.53;;;3.67;;
20427;SDS011;10373;49.768;18.302;2023-06-04T04:46:30;3.73;;;3.00;;
20427;SDS011;10373;49.768;18.302;2023-06-04T04:48:55;7.53;;;4.00;;
20427;SDS011;10373;49.768;18.302;2023-06-04T04:51:21;4.63;;;3.50;;
20427;SDS011;10373;49.768;18.302;2023-06-04T04:53:47;4.30;;;3.60;;
20427;SDS011;10373;49.768;18.302;2023-06-04T04:56:13;5.00;;;3.67;;
20427;SDS011;10373;49.768;18.302;2023-06-04T04:58:39;6.23;;;4.00;;
20427;SDS011;10373;49.768;18.302;2023-06-04T05:01:05;3.77;;;3.30;;
20427;SDS011;10373;49.768;18.302;2023-06-04T05:03:30;5.10;;;3.70;;
20427;SDS011;10373;49.768;18.302;2023-06-04T05:05:56;4.60;;;3.60;;
20427;SDS011;10373;49.768;18.302;2023-06-04T05:08:22;5.93;;;3.90;;
20427;SDS011;10373;49.768;18.302;2023-06-04T05:10:47;5.53;;;4.50;;
20427;SDS011;10373;49.768;18.302;2023-06-04T05:13:13;5.53;;;4.17;;
20427;SDS011;10373;49.768;18.302;2023-06-04T05:15:40;5.90;;;4.10;;
20427;SDS011;10373;49.768;18.302;2023-06-04T05:18:07;5.00;;;3.60;;
20427;SDS011;10373;49.768;18.302;2023-06-04T05:20:33;4.80;;;4.03;;
20427;SDS011;10373;49.768;18.302;2023-06-04T05:23:02;4.90;;;3.90;;
20427;SDS011;10373;49.768;18.302;2023-06-04T05:25:29;4.47;;;4.00;;
20427;SDS011;10373;49.768;18.302;2023-06-04T05:27:56;5.03;;;3.87;;
20427;SDS011;10373;49.768;18.302;2023-06-04T05:30:21;5.87;;;3.90;;
20427;SDS011;10373;49.768;18.302;2023-06-04T05:32:47;12.03;;;6.03;;
20427;SDS011;10373;49.768;18.302;2023-06-04T05:35:15;9.75;;;6.53;;
20427;SDS011;10373;49.768;18.302;2023-06-04T05:37:41;8.33;;;5.07;;
20427;SDS011;10373;49.768;18.302;2023-06-04T05:40:08;9.83;;;6.00;;
20427;SDS011;10373;49.768;18.302;2023-06-04T05:42:34;9.27;;;5.50;;
20427;SDS011;10373;49.768;18.302;2023-06-04T05:48:16;9.50;;;5.60;;
20427;SDS011;10373;49.768;18.302;2023-06-04T05:50:42;9.87;;;5.67;;
20427;SDS011;10373;49.768;18.302;2023-06-04T05:53:07;7.40;;;5.30;;
20427;SDS011;10373;49.768;18.302;2023-06-04T05:55:33;8.40;;;4.85;;
20427;SDS011;10373;49.768;18.302;2023-06-04T05:57:59;8.18;;;5.50;;
20427;SDS011;10373;49.768;18.302;2023-06-04T06:00:25;9.57;;;6.13;;
20427;SDS011;10373;49.768;18.302;2023-06-04T06:02:50;8.67;;;5.60;;
20427;SDS011;10373;49.768;18.302;2023-06-04T06:05:17;13.13;;;8.10;;
20427;SDS011;10373;49.768;18.302;2023-06-04T06:07:44;10.30;;;7.30;;
20427;SDS011;10373;49.768;18.302;2023-06-04T06:10:10;14.68;;;7.60;;
20427;SDS011;10373;49.768;18.302;2023-06-04T06:12:36;12.93;;;7.03;;
20427;SDS011;10373;49.768;18.302;2023-06-04T06:15:02;16.17;;;9.33;;
20427;SDS011;10373;49.768;18.302;2023-06-04T06:17:28;14.40;;;8.90;;
20427;SDS011;10373;49.768;18.302;2023-06-04T06:19:53;12.15;;;6.93;;
20427;SDS011;10373;49.768;18.302;2023-06-04T06:22:20;14.25;;;8.10;;
20427;SDS011;10373;49.768;18.302;2023-06-04T06:24:46;16.73;;;10.02;;
20427;SDS011;10373;49.768;18.302;2023-06-04T06:27:15;13.77;;;8.32;;
20427;SDS011;10373;49.768;18.302;2023-06-04T06:29:42;12.07;;;7.28;;
20427;SDS011;10373;49.768;18.302;2023-06-04T06:32:08;11.60;;;7.03;;
20427;SDS011;10373;49.768;18.302;2023-06-04T06:34:35;11.65;;;7.95;;
20427;SDS011;10373;49.768;18.302;2023-06-04T06:37:00;16.38;;;9.75;;
20427;SDS011;10373;49.768;18.302;2023-06-04T06:39:26;19.02;;;9.38;;
20427;SDS011;10373;49.768;18.302;2023-06-04T06:41:51;18.70;;;10.43;;
20427;SDS011;10373;49.768;18.302;2023-06-04T06:44:17;15.50;;;8.55;;
20427;SDS011;10373;49.768;18.302;2023-06-04T06:46:43;12.88;;;8.05;;
20427;SDS011;10373;49.768;18.302;2023-06-04T06:49:08;17.52;;;9.45;;
20427;SDS011;10373;49.768;18.302;2023-06-04T06:51:34;16.17;;;9.32;;
20427;SDS011;10373;49.768;18.302;2023-06-04T06:54:00;14.50;;;9.38;;
20427;SDS011;10373;49.768;18.302;2023-06-04T06:56:25;14.10;;;7.57;;
20427;SDS011;10373;49.768;18.302;2023-06-04T06:58:51;16.73;;;8.15;;
20427;SDS011;10373;49.768;18.302;2023-06-04T07:01:17;14.27;;;8.15;;
20427;SDS011;10373;49.768;18.302;2023-06-04T07:03:43;11.80;;;6.78;;
20427;SDS011;10373;49.768;18.302;2023-06-04T07:06:08;10.57;;;6.93;;
20427;SDS011;10373;49.768;18.302;2023-06-04T07:08:34;14.35;;;6.72;;
20427;SDS011;10373;49.768;18.302;2023-06-04T07:11:01;12.02;;;7.10;;
20427;SDS011;10373;49.768;18.302;2023-06-04T07:13:28;16.20;;;7.75;;
20427;SDS011;10373;49.768;18.302;2023-06-04T07:15:54;12.50;;;6.85;;
20427;SDS011;10373;49.768;18.302;2023-06-04T07:18:20;10.82;;;6.43;;
20427;SDS011;10373;49.768;18.302;2023-06-04T07:20:45;8.35;;;5.65;;
20427;SDS011;10373;49.768;18.302;2023-06-04T07:23:11;10.43;;;5.80;;
20427;SDS011;10373;49.768;18.302;2023-06-04T07:25:37;9.48;;;6.30;;
20427;SDS011;10373;49.768;18.302;2023-06-04T07:28:02;8.63;;;6.20;;
20427;SDS011;10373;49.768;18.302;2023-06-04T07:30:30;11.57;;;5.65;;
20427;SDS011;10373;49.768;18.302;2023-06-04T07:32:59;10.45;;;6.35;;
20427;SDS011;10373;49.768;18.302;2023-06-04T07:35:25;9.85;;;5.97;;
20427;SDS011;10373;49.768;18.302;2023-06-04T07:37:51;7.63;;;5.32;;
20427;SDS011;10373;49.768;18.302;2023-06-04T07:40:16;9.30;;;6.07;;
20427;SDS011;10373;49.768;18.302;2023-06-04T07:42:42;15.30;;;7.78;;
20427;SDS011;10373;49.768;18.302;2023-06-04T07:45:10;19.75;;;9.35;;
20427;SDS011;10373;49.768;18.302;2023-06-04T07:47:36;14.43;;;8.43;;
20427;SDS011;10373;49.768;18.302;2023-06-04T07:50:02;9.13;;;6.38;;
20427;SDS011;10373;49.768;18.302;2023-06-04T07:52:28;13.30;;;8.07;;
20427;SDS011;10373;49.768;18.302;2023-06-04T07:54:53;12.65;;;6.90;;
20427;SDS011;10373;49.768;18.302;2023-06-04T07:57:20;14.05;;;8.65;;
20427;SDS011;10373;49.768;18.302;2023-06-04T07:59:46;17.40;;;8.55;;
20427;SDS011;10373;49.768;18.302;2023-06-04T08:02:11;12.95;;;7.50;;
20427;SDS011;10373;49.768;18.302;2023-06-04T08:04:37;11.13;;;7.03;;
20427;SDS011;10373;49.768;18.302;2023-06-04T08:07:04;11.70;;;6.22;;
20427;SDS011;10373;49.768;18.302;2023-06-04T08:09:30;10.50;;;6.45;;
20427;SDS011;10373;49.768;18.302;2023-06-04T08:11:55;12.48;;;6.20;;
20427;SDS011;10373;49.768;18.302;2023-06-04T08:14:21;12.18;;;6.72;;
20427;SDS011;10373;49.768;18.302;2023-06-04T08:16:48;14.68;;;8.65;;
20427;SDS011;10373;49.768;18.302;2023-06-04T08:19:14;18.73;;;9.93;;
20427;SDS011;10373;49.768;18.302;2023-06-04T08:21:40;17.52;;;9.45;;
20427;SDS011;10373;49.768;18.302;2023-06-04T08:24:08;16.40;;;9.05;;
20427;SDS011;10373;49.768;18.302;2023-06-04T08:26:34;16.55;;;8.68;;
20427;SDS011;10373;49.768;18.302;2023-06-04T08:29:01;12.60;;;7.03;;
20427;SDS011;10373;49.768;18.302;2023-06-04T08:31:28;12.95;;;7.68;;
20427;SDS011;10373;49.768;18.302;2023-06-04T08:33:54;13.82;;;7.65;;
20427;SDS011;10373;49.768;18.302;2023-06-04T08:36:20;16.10;;;8.02;;
20427;SDS011;10373;49.768;18.302;2023-06-04T08:38:46;13.02;;;7.95;;
20427;SDS011;10373;49.768;18.302;2023-06-04T08:41:16;14.57;;;8.93;;
20427;SDS011;10373;49.768;18.302;2023-06-04T08:43:48;14.57;;;8.32;;
20427;SDS011;10373;49.768;18.302;2023-06-04T08:46:15;24.13;;;10.68;;
20427;SDS011;10373;49.768;18.302;2023-06-04T08:48:42;20.95;;;9.80;;
20427;SDS011;10373;49.768;18.302;2023-06-04T08:51:08;15.90;;;9.05;;
20427;SDS011;10373;49.768;18.302;2023-06-04T08:53:36;15.63;;;9.57;;
20427;SDS011;10373;49.768;18.302;2023-06-04T08:56:02;16.05;;;9.32;;
20427;SDS011;10373;49.768;18.302;2023-06-04T08:58:31;14.32;;;8.00;;
20427;SDS011;10373;49.768;18.302;2023-06-04T09:01:00;16.70;;;9.15;;
20427;SDS011;10373;49.768;18.302;2023-06-04T09:03:26;17.52;;;7.53;;
20427;SDS011;10373;49.768;18.302;2023-06-04T09:05:56;11.60;;;6.43;;
20427;SDS011;10373;49.768;18.302;2023-06-04T09:08:23;18.40;;;8.95;;
20427;SDS011;10373;49.768;18.302;2023-06-04T09:10:51;26.00;;;11.73;;
20427;SDS011;10373;49.768;18.302;2023-06-04T09:13:19;17.92;;;9.63;;
20427;SDS011;10373;49.768;18.302;2023-06-04T09:16:03;18.50;;;9.55;;
20427;SDS011;10373;49.768;18.302;2023-06-04T09:18:30;15.30;;;8.40;;
20427;SDS011;10373;49.768;18.302;2023-06-04T09:21:01;14.13;;;8.52;;
20427;SDS011;10373;49.768;18.302;2023-06-04T09:23:31;14.05;;;7.85;;
20427;SDS011;10373;49.768;18.302;2023-06-04T09:26:07;13.48;;;7.45;;
20427;SDS011;10373;49.768;18.302;2023-06-04T09:28:34;13.65;;;7.72;;
20427;SDS011;10373;49.768;18.302;2023-06-04T09:31:00;17.02;;;7.43;;
20427;SDS011;10373;49.768;18.302;2023-06-04T09:33:27;16.60;;;8.65;;
20427;SDS011;10373;49.768;18.302;2023-06-04T09:35:57;13.02;;;7.30;;
20427;SDS011;10373;49.768;18.302;2023-06-04T09:38:23;15.88;;;8.10;;
20427;SDS011;10373;49.768;18.302;2023-06-04T09:40:57;13.10;;;8.00;;
20427;SDS011;10373;49.768;18.302;2023-06-04T09:43:25;12.77;;;7.45;;
20427;SDS011;10373;49.768;18.302;2023-06-04T09:45:51;14.45;;;7.28;;
20427;SDS011;10373;49.768;18.302;2023-06-04T09:48:21;13.65;;;7.65;;
20427;SDS011;10373;49.768;18.302;2023-06-04T09:50:47;13.15;;;7.45;;
20427;SDS011;10373;49.768;18.302;2023-06-04T09:53:17;13.10;;;6.70;;
20427;SDS011;10373;49.768;18.302;2023-06-04T09:56:00;12.23;;;5.75;;
20427;SDS011;10373;49.768;18.302;2023-06-04T09:58:29;11.40;;;6.30;;
20427;SDS011;10373;49.768;18.302;2023-06-04T10:00:55;8.55;;;5.40;;
20427;SDS011;10373;49.768;18.302;2023-06-04T10:03:23;9.00;;;5.60;;
20427;SDS011;10373;49.768;18.302;2023-06-04T10:05:56;9.70;;;5.20;;
20427;SDS011;10373;49.768;18.302;2023-06-04T10:08:23;15.82;;;7.65;;
20427;SDS011;10373;49.768;18.302;2023-06-04T10:10:50;14.40;;;8.30;;
20427;SDS011;10373;49.768;18.302;2023-06-04T10:13:20;13.85;;;7.07;;
20427;SDS011;10373;49.768;18.302;2023-06-04T10:15:48;14.52;;;7.57;;
20427;SDS011;10373;49.768;18.302;2023-06-04T10:18:15;9.88;;;5.53;;
20427;SDS011;10373;49.768;18.302;2023-06-04T10:20:41;7.88;;;4.80;;
20427;SDS011;10373;49.768;18.302;2023-06-04T10:23:07;8.88;;;5.47;;
20427;SDS011;10373;49.768;18.302;2023-06-04T10:25:36;9.00;;;4.70;;
20427;SDS011;10373;49.768;18.302;2023-06-04T10:28:03;13.65;;;5.97;;
20427;SDS011;10373;49.768;18.302;2023-06-04T10:30:29;11.93;;;6.60;;
20427;SDS011;10373;49.768;18.302;2023-06-04T10:32:58;14.48;;;6.85;;
20427;SDS011;10373;49.768;18.302;2023-06-04T10:35:31;10.82;;;6.35;;
20427;SDS011;10373;49.768;18.302;2023-06-04T10:38:04;9.68;;;4.72;;
20427;SDS011;10373;49.768;18.302;2023-06-04T10:40:35;8.95;;;5.10;;
20427;SDS011;10373;49.768;18.302;2023-06-04T10:43:08;9.20;;;5.53;;
20427;SDS011;10373;49.768;18.302;2023-06-04T10:45:38;7.53;;;5.13;;
20427;SDS011;10373;49.768;18.302;2023-06-04T10:48:05;8.13;;;4.75;;
20427;SDS011;10373;49.768;18.302;2023-06-04T10:50:36;8.23;;;4.88;;
20427;SDS011;10373;49.768;18.302;2023-06-04T10:53:16;5.85;;;4.30;;
20427;SDS011;10373;49.768;18.302;2023-06-04T10:55:44;6.90;;;3.70;;
20427;SDS011;10373;49.768;18.302;2023-06-04T10:58:11;6.10;;;3.95;;
20427;SDS011;10373;49.768;18.302;2023-06-04T11:00:37;10.02;;;5.65;;
20427;SDS011;10373;49.768;18.302;2023-06-04T11:03:14;6.78;;;4.30;;
20427;SDS011;10373;49.768;18.302;2023-06-04T11:05:44;5.88;;;4.10;;
20427;SDS011;10373;49.768;18.302;2023-06-04T11:08:11;4.78;;;3.15;;
20427;SDS011;10373;49.768;18.302;2023-06-04T11:10:43;7.95;;;3.78;;
20427;SDS011;10373;49.768;18.302;2023-06-04T11:13:09;7.10;;;3.35;;
20427;SDS011;10373;49.768;18.302;2023-06-04T11:15:42;6.88;;;4.20;;
20427;SDS011;10373;49.768;18.302;2023-06-04T11:18:15;4.10;;;3.20;;
20427;SDS011;10373;49.768;18.302;2023-06-04T11:20:58;4.50;;;3.10;;
20427;SDS011;10373;49.768;18.302;2023-06-04T11:23:25;7.50;;;3.70;;
20427;SDS011;10373;49.768;18.302;2023-06-04T11:25:54;5.03;;;3.22;;
20427;SDS011;10373;49.768;18.302;2023-06-04T11:28:20;6.03;;;3.10;;
20427;SDS011;10373;49.768;18.302;2023-06-04T11:30:56;5.25;;;4.28;;
20427;SDS011;10373;49.768;18.302;2023-06-04T11:33:22;4.95;;;3.63;;
20427;SDS011;10373;49.768;18.302;2023-06-04T11:35:48;5.40;;;4.20;;
20427;SDS011;10373;49.768;18.302;2023-06-04T11:38:14;7.13;;;3.78;;
20427;SDS011;10373;49.768;18.302;2023-06-04T11:40:39;6.97;;;4.20;;
20427;SDS011;10373;49.768;18.302;2023-06-04T11:43:09;5.20;;;3.70;;
20427;SDS011;10373;49.768;18.302;2023-06-04T11:45:35;4.65;;;3.30;;
20427;SDS011;10373;49.768;18.302;2023-06-04T11:48:02;3.38;;;3.08;;
20427;SDS011;10373;49.768;18.302;2023-06-04T11:50:30;3.40;;;3.10;;
20427;SDS011;10373;49.768;18.302;2023-06-04T11:52:56;9.43;;;4.70;;
20427;SDS011;10373;49.768;18.302;2023-06-04T11:55:23;5.68;;;3.83;;
20427;SDS011;10373;49.768;18.302;2023-06-04T11:57:50;3.67;;;2.90;;
20427;SDS011;10373;49.768;18.302;2023-06-04T12:00:16;4.03;;;2.95;;
20427;SDS011;10373;49.768;18.302;2023-06-04T12:02:52;3.65;;;3.30;;
20427;SDS011;10373;49.768;18.302;2023-06-04T12:05:20;5.15;;;3.88;;
20427;SDS011;10373;49.768;18.302;2023-06-04T12:07:50;3.83;;;3.25;;
20427;SDS011;10373;49.768;18.302;2023-06-04T12:10:17;5.55;;;3.53;;
20427;SDS011;10373;49.768;18.302;2023-06-04T12:12:43;3.33;;;3.00;;
20427;SDS011;10373;49.768;18.302;2023-06-04T12:15:09;3.50;;;3.15;;
20427;SDS011;10373;49.768;18.302;2023-06-04T12:17:35;3.80;;;3.40;;
20427;SDS011;10373;49.768;18.302;2023-06-04T12:20:02;5.72;;;3.33;;
20427;SDS011;10373;49.768;18.302;2023-06-04T12:22:30;4.65;;;3.33;;
20427;SDS011;10373;49.768;18.302;2023-06-04T12:24:56;5.03;;;3.13;;
20427;SDS011;10373;49.768;18.302;2023-06-04T12:27:25;5.85;;;3.85;;
20427;SDS011;10373;49.768;18.302;2023-06-04T12:29:55;7.80;;;3.72;;
20427;SDS011;10373;49.768;18.302;2023-06-04T12:32:22;5.45;;;3.17;;
20427;SDS011;10373;49.768;18.302;2023-06-04T12:34:47;5.47;;;3.50;;
20427;SDS011;10373;49.768;18.302;2023-06-04T12:37:13;4.00;;;3.20;;
20427;SDS011;10373;49.768;18.302;2023-06-04T12:39:39;3.50;;;3.03;;
20427;SDS011;10373;49.768;18.302;2023-06-04T12:42:05;5.68;;;3.03;;
20427;SDS011;10373;49.768;18.302;2023-06-04T12:44:33;5.35;;;3.05;;
20427;SDS011;10373;49.768;18.302;2023-06-04T12:47:03;4.80;;;3.47;;
20427;SDS011;10373;49.768;18.302;2023-06-04T12:49:29;4.28;;;3.88;;
20427;SDS011;10373;49.768;18.302;2023-06-04T12:51:55;7.65;;;4.40;;
20427;SDS011;10373;49.768;18.302;2023-06-04T12:54:20;5.32;;;4.43;;
20427;SDS011;10373;49.768;18.302;2023-06-04T12:56:46;5.70;;;3.78;;
20427;SDS011;10373;49.768;18.302;2023-06-04T12:59:12;6.35;;;4.00;;
20427;SDS011;10373;49.768;18.302;2023-06-04T13:01:38;6.53;;;3.55;;
20427;SDS011;10373;49.768;18.302;2023-06-04T13:04:04;6.03;;;3.22;;
20427;SDS011;10373;49.768;18.302;2023-06-04T13:06:29;3.88;;;3.45;;
20427;SDS011;10373;49.768;18.302;2023-06-04T13:08:55;4.47;;;3.30;;
20427;SDS011;10373;49.768;18.302;2023-06-04T13:11:21;4.72;;;3.40;;
20427;SDS011;10373;49.768;18.302;2023-06-04T13:13:47;4.65;;;3.58;;
20427;SDS011;10373;49.768;18.302;2023-06-04T13:16:13;4.15;;;3.00;;
20427;SDS011;10373;49.768;18.302;2023-06-04T13:18:39;5.50;;;3.72;;
20427;SDS011;10373;49.768;18.302;2023-06-04T13:21:05;4.90;;;3.35;;
20427;SDS011;10373;49.768;18.302;2023-06-04T13:23:30;5.57;;;3.67;;
20427;SDS011;10373;49.768;18.302;2023-06-04T13:25:56;4.88;;;3.50;;
20427;SDS011;10373;49.768;18.302;2023-06-04T13:28:22;6.63;;;3.55;;
20427;SDS011;10373;49.768;18.302;2023-06-04T13:30:48;6.68;;;3.50;;
20427;SDS011;10373;49.768;18.302;2023-06-04T13:33:13;3.75;;;3.42;;
20427;SDS011;10373;49.768;18.302;2023-06-04T13:35:39;5.18;;;3.47;;
20427;SDS011;10373;49.768;18.302;2023-06-04T13:38:07;3.90;;;3.25;;
20427;SDS011;10373;49.768;18.302;2023-06-04T13:40:36;7.20;;;3.47;;
20427;SDS011;10373;49.768;18.302;2023-06-04T13:43:02;6.30;;;3.80;;
20427;SDS011;10373;49.768;18.302;2023-06-04T13:45:28;4.32;;;3.30;;
20427;SDS011;10373;49.768;18.302;2023-06-04T13:47:53;4.35;;;3.25;;
20427;SDS011;10373;49.768;18.302;2023-06-04T13:50:19;4.20;;;3.20;;
20427;SDS011;10373;49.768;18.302;2023-06-04T13:52:45;5.10;;;3.75;;
20427;SDS011;10373;49.768;18.302;2023-06-04T13:55:12;7.13;;;3.70;;
20427;SDS011;10373;49.768;18.302;2023-06-04T13:57:38;4.90;;;3.47;;
20427;SDS011;10373;49.768;18.302;2023-06-04T14:00:04;4.45;;;3.72;;
20427;SDS011;10373;49.768;18.302;2023-06-04T14:02:31;3.97;;;3.42;;
20427;SDS011;10373;49.768;18.302;2023-06-04T14:04:57;5.38;;;3.67;;
20427;SDS011;10373;49.768;18.302;2023-06-04T14:07:23;6.65;;;3.78;;
20427;SDS011;10373;49.768;18.302;2023-06-04T14:09:48;5.20;;;3.70;;
20427;SDS011;10373;49.768;18.302;2023-06-04T14:12:19;6.75;;;4.43;;
20427;SDS011;10373;49.768;18.302;2023-06-04T14:14:48;5.65;;;3.63;;
20427;SDS011;10373;49.768;18.302;2023-06-04T14:17:14;4.68;;;3.65;;
20427;SDS011;10373;49.768;18.302;2023-06-04T14:19:40;5.32;;;3.53;;
20427;SDS011;10373;49.768;18.302;2023-06-04T14:22:06;3.40;;;2.90;;
20427;SDS011;10373;49.768;18.302;2023-06-04T14:24:32;3.83;;;3.15;;
20427;SDS011;10373;49.768;18.302;2023-06-04T14:26:58;4.57;;;3.40;;
20427;SDS011;10373;49.768;18.302;2023-06-04T14:29:23;7.10;;;3.67;;
20427;SDS011;10373;49.768;18.302;2023-06-04T14:31:49;6.22;;;3.50;;
20427;SDS011;10373;49.768;18.302;2023-06-04T14:34:15;6.07;;;3.50;;
20427;SDS011;10373;49.768;18.302;2023-06-04T14:36:40;4.25;;;3.75;;
20427;SDS011;10373;49.768;18.302;2023-06-04T14:39:06;4.85;;;3.15;;
20427;SDS011;10373;49.768;18.302;2023-06-04T14:41:32;5.13;;;3.22;;